Time;durP1;ratioP1;P1;durP2;ratioP2;P2;SDS_P1;SDS_P2;PMS_P1;PMS_P2;Temp;Humidity;BMP_temperature;BMP_pressure;BME280_temperature;BME280_humidity;BME280_pressure;Samples;Min_cycle;Max_cycle;Signal;HPM_P1;HPM_P2
2021/05/28 00:02:08;;;;;;;7.93;4.15;;;15.30;99.90;;;;;;5066254;28;20513;-68
2021/05/28 00:04:34;;;;;;;6.50;5.10;;;15.50;99.90;;;;;;5055097;28;20025;-68
2021/05/28 00:07:00;;;;;;;6.38;5.00;;;15.40;99.90;;;;;;5057618;28;20021;-68
2021/05/28 00:09:26;;;;;;;5.85;4.82;;;15.40;99.90;;;;;;5056608;28;20117;-67
2021/05/28 00:11:52;;;;;;;5.53;4.72;;;15.30;99.90;;;;;;5056441;28;20027;-68
2021/05/28 00:14:18;;;;;;;6.07;4.35;;;15.40;99.90;;;;;;5057782;28;20025;-68
2021/05/28 00:16:43;;;;;;;5.35;4.43;;;15.30;99.90;;;;;;5055785;28;20481;-75
2021/05/28 00:19:09;;;;;;;7.07;4.57;;;15.30;99.90;;;;;;5058741;28;20119;-74
2021/05/28 00:21:35;;;;;;;5.57;4.10;;;15.30;99.90;;;;;;5053658;28;20025;-76
2021/05/28 00:24:01;;;;;;;4.78;3.80;;;15.20;99.90;;;;;;5059916;28;20481;-74
2021/05/28 00:26:26;;;;;;;5.85;4.20;;;15.20;99.90;;;;;;5053460;28;20021;-75
2021/05/28 00:28:52;;;;;;;6.75;4.53;;;15.10;99.90;;;;;;5060355;28;20029;-76
2021/05/28 00:31:19;;;;;;;5.30;4.05;;;15.30;99.90;;;;;;5053702;28;20115;-73
2021/05/28 00:33:46;;;;;;;5.20;4.13;;;15.30;99.90;;;;;;5060460;28;20024;-76
2021/05/28 00:36:12;;;;;;;5.57;4.32;;;15.10;99.90;;;;;;5053841;28;20027;-71
2021/05/28 00:38:37;;;;;;;4.55;4.15;;;15.20;99.90;;;;;;5059206;28;20409;-76
2021/05/28 00:41:03;;;;;;;5.05;4.50;;;15.10;99.90;;;;;;5052771;28;20120;-76
2021/05/28 00:43:29;;;;;;;4.63;4.20;;;15.00;99.90;;;;;;5059999;28;20450;-76
2021/05/28 00:45:55;;;;;;;5.18;3.90;;;15.00;99.90;;;;;;5035230;28;20405;-75
2021/05/28 00:48:21;;;;;;;7.57;4.80;;;15.00;99.90;;;;;;5060874;28;20029;-72
2021/05/28 00:50:47;;;;;;;5.47;4.60;;;15.10;99.90;;;;;;5051371;28;20037;-76
2021/05/28 00:53:13;;;;;;;7.35;4.05;;;14.90;99.90;;;;;;5061705;28;20564;-76
2021/05/28 00:55:39;;;;;;;5.20;4.63;;;15.00;99.90;;;;;;5049499;28;20028;-73
2021/05/28 00:58:06;;;;;;;5.05;4.22;;;14.90;99.90;;;;;;5062019;28;20545;-76
2021/05/28 01:00:32;;;;;;;4.93;4.18;;;14.80;99.90;;;;;;5056827;28;20457;-76
2021/05/28 01:02:58;;;;;;;9.77;4.78;;;15.00;99.90;;;;;;5041780;28;20409;-73
2021/05/28 01:05:23;;;;;;;5.30;4.18;;;15.10;99.90;;;;;;5051081;28;20028;-76
2021/05/28 01:07:49;;;;;;;5.38;4.88;;;14.90;99.90;;;;;;5043863;28;20029;-74
2021/05/28 01:10:15;;;;;;;5.28;4.00;;;14.70;99.90;;;;;;5070438;28;20036;-76
2021/05/28 01:12:42;;;;;;;5.00;4.50;;;14.70;99.90;;;;;;5063502;28;20381;-75
2021/05/28 01:15:09;;;;;;;5.57;4.50;;;14.70;99.90;;;;;;5050752;28;20146;-75
2021/05/28 01:17:35;;;;;;;7.13;4.70;;;14.60;99.90;;;;;;5061276;28;20025;-73
2021/05/28 01:20:02;;;;;;;6.78;4.63;;;14.40;99.90;;;;;;5049558;28;20025;-75
2021/05/28 01:22:28;;;;;;;8.27;5.00;;;14.60;99.90;;;;;;5059738;28;20036;-74
2021/05/28 01:24:54;;;;;;;6.28;4.82;;;14.60;99.90;;;;;;5051937;28;20025;-71
2021/05/28 01:27:21;;;;;;;5.13;4.47;;;14.50;99.90;;;;;;5058657;28;20081;-69
2021/05/28 01:29:47;;;;;;;5.10;4.60;;;14.60;99.90;;;;;;5052679;28;20453;-68
2021/05/28 01:32:14;;;;;;;5.50;4.82;;;14.80;99.90;;;;;;5058066;28;20017;-67
2021/05/28 01:34:40;;;;;;;5.35;4.57;;;14.60;99.90;;;;;;5053548;28;20116;-69
2021/05/28 01:37:06;;;;;;;6.65;4.40;;;14.90;99.90;;;;;;5055930;28;20509;-68
2021/05/28 01:39:32;;;;;;;5.53;4.38;;;14.70;99.90;;;;;;5054395;28;20106;-70
2021/05/28 01:41:58;;;;;;;10.07;4.53;;;14.80;99.90;;;;;;5055213;28;20551;-73
2021/05/28 01:44:23;;;;;;;5.22;4.68;;;14.80;99.90;;;;;;5055702;28;20658;-70
2021/05/28 01:46:50;;;;;;;6.43;4.53;;;14.90;99.90;;;;;;5054552;28;20021;-75
2021/05/28 01:49:16;;;;;;;5.95;4.45;;;15.00;99.90;;;;;;5056972;28;20039;-68
2021/05/28 01:51:52;;;;;;;5.85;4.25;;;15.10;99.90;;;;;;5053423;28;20377;-75
2021/05/28 01:54:18;;;;;;;4.75;4.28;;;15.00;99.90;;;;;;5056440;28;20051;-70
2021/05/28 01:56:46;;;;;;;6.93;4.70;;;15.10;99.90;;;;;;5053326;28;20397;-67
2021/05/28 01:59:28;;;;;;;4.25;3.92;;;15.00;99.90;;;;;;5056906;28;20482;-67
2021/05/28 02:01:54;;;;;;;5.97;4.63;;;14.80;99.90;;;;;;5054731;28;20518;-69
2021/05/28 02:04:21;;;;;;;4.18;3.75;;;14.80;99.90;;;;;;5056038;28;20031;-74
2021/05/28 02:06:47;;;;;;;6.00;5.05;;;14.80;99.90;;;;;;5049259;28;20482;-69
2021/05/28 02:09:12;;;;;;;8.48;4.25;;;14.80;99.90;;;;;;5056798;28;20057;-74
2021/05/28 02:11:38;;;;;;;6.20;4.47;;;14.80;99.90;;;;;;5052234;28;20035;-72
2021/05/28 02:14:05;;;;;;;6.53;4.80;;;14.70;99.90;;;;;;5057599;28;20017;-68
2021/05/28 02:16:32;;;;;;;6.35;4.82;;;14.90;99.90;;;;;;5052333;28;20082;-73
2021/05/28 02:18:58;;;;;;;7.43;5.00;;;14.80;99.90;;;;;;5058893;28;20435;-67
2021/05/28 02:21:24;;;;;;;5.50;4.97;;;14.70;99.90;;;;;;5051881;28;20025;-68
2021/05/28 02:23:49;;;;;;;9.55;4.75;;;14.80;99.90;;;;;;5058596;28;20037;-68
2021/05/28 02:26:15;;;;;;;13.40;5.63;;;14.50;99.90;;;;;;5052278;28;20362;-68
2021/05/28 02:28:41;;;;;;;6.63;5.15;;;14.60;99.90;;;;;;5058477;28;20025;-67
2021/05/28 02:31:07;;;;;;;9.20;5.28;;;14.40;99.90;;;;;;5051783;28;20033;-68
2021/05/28 02:33:32;;;;;;;8.00;5.50;;;14.40;99.90;;;;;;5058353;28;20017;-68
2021/05/28 02:35:59;;;;;;;5.82;4.97;;;14.20;99.90;;;;;;5051171;28;20130;-67
2021/05/28 02:38:25;;;;;;;10.15;5.03;;;14.40;99.90;;;;;;5047677;28;20048;-67
2021/05/28 02:40:50;;;;;;;5.30;4.82;;;14.60;99.90;;;;;;5049774;28;20087;-67
2021/05/28 02:43:16;;;;;;;8.52;4.80;;;14.50;99.90;;;;;;5059899;28;20029;-68
2021/05/28 02:45:42;;;;;;;7.40;4.70;;;14.40;99.90;;;;;;5049804;28;20025;-67
2021/05/28 02:48:07;;;;;;;11.02;4.97;;;14.40;99.90;;;;;;5060291;28;20047;-68
2021/05/28 02:50:33;;;;;;;9.57;5.43;;;14.30;99.90;;;;;;5049113;28;20060;-68
2021/05/28 02:53:02;;;;;;;5.95;4.88;;;14.50;99.90;;;;;;5060529;28;20492;-68
2021/05/28 02:55:29;;;;;;;6.95;4.88;;;14.50;99.90;;;;;;5049417;28;20079;-68
2021/05/28 02:57:55;;;;;;;5.05;4.53;;;14.50;99.90;;;;;;5060744;28;20035;-71
2021/05/28 03:00:22;;;;;;;5.95;4.63;;;14.60;99.90;;;;;;5049260;28;20029;-67
2021/05/28 03:02:49;;;;;;;5.30;4.80;;;14.60;99.90;;;;;;5062032;28;20027;-69
2021/05/28 03:05:15;;;;;;;9.02;5.05;;;14.50;99.90;;;;;;5051923;28;20032;-68
2021/05/28 03:07:41;;;;;;;8.27;4.85;;;14.50;99.90;;;;;;5063832;28;20017;-69
2021/05/28 03:10:07;;;;;;;8.73;4.97;;;14.50;99.90;;;;;;5053241;28;20163;-68
2021/05/28 03:12:33;;;;;;;6.65;4.65;;;14.30;99.90;;;;;;5062484;28;20017;-68
2021/05/28 03:14:59;;;;;;;7.10;5.03;;;14.30;99.90;;;;;;5051827;28;20029;-68
2021/05/28 03:17:25;;;;;;;6.65;4.70;;;14.20;99.90;;;;;;5040884;28;20025;-68
2021/05/28 03:19:51;;;;;;;5.82;4.40;;;13.80;99.90;;;;;;5053030;28;20029;-68
2021/05/28 03:22:33;;;;;;;5.18;4.68;;;13.80;99.90;;;;;;5060404;28;20021;-69
2021/05/28 03:25:10;;;;;;;9.95;4.88;;;13.90;99.90;;;;;;5053741;28;20303;-68
2021/05/28 03:27:37;;;;;;;6.80;4.95;;;13.80;99.90;;;;;;5062556;28;20099;-68
2021/05/28 03:30:10;;;;;;;7.18;4.65;;;13.70;99.90;;;;;;5052613;28;20037;-68
2021/05/28 03:32:37;;;;;;;4.85;4.35;;;13.90;99.90;;;;;;5063523;28;20580;-67
2021/05/28 03:35:04;;;;;;;9.82;4.80;;;13.90;99.90;;;;;;5053349;28;20052;-67
2021/05/28 03:37:30;;;;;;;9.90;4.35;;;13.80;99.90;;;;;;5061859;28;20416;-68
2021/05/28 03:39:56;;;;;;;7.38;4.63;;;13.60;99.90;;;;;;5053894;28;20096;-70
2021/05/28 03:42:22;;;;;;;7.20;4.45;;;13.50;99.90;;;;;;5060522;28;20096;-69
2021/05/28 03:44:48;;;;;;;8.65;4.38;;;13.50;99.90;;;;;;5054916;28;20065;-69
2021/05/28 03:47:18;;;;;;;5.32;4.82;;;13.40;99.90;;;;;;5059882;28;20676;-68
2021/05/28 03:49:44;;;;;;;5.45;4.95;;;13.30;99.90;;;;;;5061998;28;20036;-68
2021/05/28 03:52:11;;;;;;;6.03;5.15;;;13.20;99.90;;;;;;5069712;28;20048;-69
2021/05/28 03:54:38;;;;;;;7.35;4.80;;;13.20;99.90;;;;;;5069676;28;20064;-69
2021/05/28 03:57:04;;;;;;;5.32;4.60;;;13.20;99.90;;;;;;5048385;28;20048;-68
2021/05/28 03:59:29;;;;;;;4.97;4.53;;;13.10;99.90;;;;;;5068776;28;20472;-69
2021/05/28 04:01:55;;;;;;;6.43;4.95;;;13.30;99.90;;;;;;5070135;28;20028;-68
2021/05/28 04:04:21;;;;;;;5.60;4.35;;;13.40;99.90;;;;;;5072121;28;20393;-69
2021/05/28 04:06:47;;;;;;;7.30;4.57;;;13.50;99.90;;;;;;5065320;28;20112;-69
2021/05/28 04:09:12;;;;;;;5.22;4.40;;;13.20;99.90;;;;;;5059536;28;20112;-64
2021/05/28 04:11:38;;;;;;;6.70;4.03;;;13.00;99.90;;;;;;5054408;28;20107;-63
2021/05/28 04:14:04;;;;;;;4.15;3.80;;;12.90;99.90;;;;;;5059559;28;20079;-64
2021/05/28 04:16:30;;;;;;;5.55;4.13;;;13.00;99.90;;;;;;5054180;28;20021;-64
2021/05/28 04:18:56;;;;;;;6.18;4.90;;;13.10;99.90;;;;;;5060812;28;20032;-64
2021/05/28 04:21:21;;;;;;;9.10;4.35;;;12.90;99.90;;;;;;5053970;28;20048;-63
2021/05/28 04:23:47;;;;;;;6.22;4.57;;;13.10;99.90;;;;;;5060695;28;20030;-64
2021/05/28 04:26:13;;;;;;;5.55;4.57;;;12.90;99.90;;;;;;5053659;28;20485;-68
2021/05/28 04:28:38;;;;;;;5.22;4.72;;;13.00;99.90;;;;;;5060474;28;20025;-70
2021/05/28 04:31:04;;;;;;;6.95;4.57;;;13.00;99.90;;;;;;5053747;28;20621;-69
2021/05/28 04:33:30;;;;;;;8.45;4.45;;;13.00;99.90;;;;;;5060320;28;20219;-70
2021/05/28 04:35:55;;;;;;;6.28;5.03;;;13.00;99.90;;;;;;5052325;28;20029;-70
2021/05/28 04:38:22;;;;;;;7.10;4.75;;;13.10;99.90;;;;;;5061247;28;20111;-70
2021/05/28 04:40:48;;;;;;;7.43;3.85;;;13.00;99.90;;;;;;5051257;28;20045;-70
2021/05/28 04:43:14;;;;;;;2.88;2.67;;;12.90;99.90;;;;;;5062141;28;20078;-70
2021/05/28 04:45:40;;;;;;;6.93;3.70;;;12.90;99.90;;;;;;5050517;28;20041;-70
2021/05/28 04:48:06;;;;;;;7.18;4.50;;;13.00;99.90;;;;;;5062555;28;20567;-70
2021/05/28 04:50:32;;;;;;;8.02;4.00;;;13.00;99.90;;;;;;5051108;28;20128;-71
2021/05/28 04:52:59;;;;;;;4.55;3.88;;;13.00;99.90;;;;;;5061916;28;20473;-70
2021/05/28 04:55:26;;;;;;;4.93;4.13;;;13.10;99.90;;;;;;5056970;28;20125;-68
2021/05/28 04:57:52;;;;;;;6.05;4.20;;;13.20;99.90;;;;;;5058514;28;20035;-67
2021/05/28 05:00:18;;;;;;;6.25;4.57;;;13.20;99.90;;;;;;5071074;28;20115;-67
2021/05/28 05:02:44;;;;;;;10.95;4.75;;;13.30;99.90;;;;;;5063423;28;20020;-68
2021/05/28 05:05:10;;;;;;;9.10;5.88;;;13.40;99.90;;;;;;5050875;28;20120;-68
2021/05/28 05:07:36;;;;;;;7.00;4.93;;;13.30;99.90;;;;;;5060680;28;20067;-68
2021/05/28 05:10:03;;;;;;;5.97;4.75;;;13.40;99.90;;;;;;5051638;28;20087;-69
2021/05/28 05:12:29;;;;;;;5.50;4.47;;;13.40;99.90;;;;;;5059690;28;20035;-68
2021/05/28 05:14:55;;;;;;;9.80;4.80;;;13.30;99.90;;;;;;5052298;28;20429;-67
2021/05/28 05:17:21;;;;;;;7.72;5.18;;;13.30;99.90;;;;;;5061320;28;20017;-67
2021/05/28 05:19:46;;;;;;;7.65;5.20;;;13.40;99.90;;;;;;5067820;28;20070;-68
2021/05/28 05:22:12;;;;;;;8.88;5.20;;;13.40;99.90;;;;;;5063951;28;20027;-69
2021/05/28 05:24:38;;;;;;;6.95;5.15;;;13.20;99.90;;;;;;5054667;28;20032;-69
2021/05/28 05:27:04;;;;;;;7.97;5.22;;;13.30;99.90;;;;;;5055689;28;20075;-70
2021/05/28 05:29:30;;;;;;;6.35;4.65;;;13.40;99.90;;;;;;5055789;28;20032;-69
2021/05/28 05:31:55;;;;;;;7.80;4.65;;;13.40;99.90;;;;;;5054899;28;20025;-72
2021/05/28 05:34:21;;;;;;;4.72;4.32;;;13.30;99.90;;;;;;5057004;28;20041;-71
2021/05/28 05:36:50;;;;;;;7.10;4.32;;;13.40;99.90;;;;;;5053262;28;20048;-69
2021/05/28 05:39:15;;;;;;;8.27;4.75;;;13.60;99.90;;;;;;5070031;28;20103;-73
2021/05/28 05:41:41;;;;;;;11.38;5.63;;;13.60;99.90;;;;;;5063396;28;20505;-68
2021/05/28 05:44:07;;;;;;;6.18;4.90;;;13.40;99.90;;;;;;5059230;28;20032;-76
2021/05/28 05:46:33;;;;;;;7.32;5.43;;;13.50;99.90;;;;;;5052739;28;20413;-68
2021/05/28 05:48:59;;;;;;;6.88;5.63;;;13.60;99.90;;;;;;5059052;28;20028;-57
2021/05/28 05:51:25;;;;;;;7.10;4.70;;;13.80;99.90;;;;;;5052418;28;20032;-60
2021/05/28 05:53:50;;;;;;;10.30;5.95;;;15.10;99.90;;;;;;5058561;28;20018;-73
2021/05/28 05:56:16;;;;;;;11.25;6.10;;;14.70;99.90;;;;;;5051820;28;20481;-74
2021/05/28 05:58:42;;;;;;;8.00;5.80;;;14.30;99.90;;;;;;5058276;28;20016;-70
2021/05/28 06:01:08;;;;;;;9.15;5.90;;;14.50;99.90;;;;;;5052170;28;20033;-73
2021/05/28 06:03:34;;;;;;;8.95;5.47;;;14.40;99.90;;;;;;5047296;28;20029;-75
2021/05/28 06:06:00;;;;;;;7.05;5.18;;;14.60;99.90;;;;;;5051397;28;20021;-74
2021/05/28 06:08:26;;;;;;;6.22;4.85;;;14.60;99.90;;;;;;5059444;28;20104;-73
2021/05/28 06:10:51;;;;;;;8.73;4.72;;;14.60;99.90;;;;;;5049666;28;20485;-73
2021/05/28 06:13:17;;;;;;;8.45;4.75;;;14.90;99.90;;;;;;5060653;28;20473;-75
2021/05/28 06:15:43;;;;;;;9.02;5.13;;;15.00;99.90;;;;;;5050063;28;20055;-68
2021/05/28 06:18:08;;;;;;;12.32;5.82;;;14.90;99.90;;;;;;5060629;28;20021;-73
2021/05/28 06:20:35;;;;;;;7.88;5.15;;;15.00;99.90;;;;;;5050024;28;20033;-73
2021/05/28 06:23:00;;;;;;;5.60;5.05;;;15.20;99.90;;;;;;5060330;28;20024;-75
2021/05/28 06:25:27;;;;;;;9.18;4.88;;;15.30;99.90;;;;;;5049348;28;20031;-75
2021/05/28 06:27:53;;;;;;;8.48;4.97;;;15.50;99.90;;;;;;5060547;28;20009;-75
2021/05/28 06:30:19;;;;;;;12.43;4.78;;;15.60;99.90;;;;;;5049616;28;20161;-75
2021/05/28 06:32:44;;;;;;;12.02;5.35;;;15.70;99.90;;;;;;5060912;28;20538;-73
2021/05/28 06:35:10;;;;;;;8.15;4.97;;;15.80;99.90;;;;;;5050016;28;20052;-70
2021/05/28 06:37:36;;;;;;;7.15;4.78;;;16.10;99.90;;;;;;5060065;28;20421;-75
2021/05/28 06:40:06;;;;;;;8.18;4.47;;;16.10;99.90;;;;;;5054628;28;20025;-75
2021/05/28 06:42:35;;;;;;;10.60;4.38;;;16.10;99.90;;;;;;5062477;28;20028;-72
2021/05/28 06:45:00;;;;;;;8.38;4.65;;;16.20;99.90;;;;;;5054524;28;20104;-74
2021/05/28 06:47:26;;;;;;;8.05;3.97;;;16.40;99.90;;;;;;5062234;28;20161;-75
2021/05/28 06:49:53;;;;;;;5.15;4.13;;;16.40;99.90;;;;;;5055682;28;20043;-75
2021/05/28 06:52:19;;;;;;;7.68;4.05;;;16.40;99.90;;;;;;5060503;28;20035;-75
2021/05/28 06:54:45;;;;;;;7.95;4.40;;;16.50;99.90;;;;;;5056610;28;20513;-75
2021/05/28 06:57:11;;;;;;;7.00;4.05;;;16.50;99.90;;;;;;5060200;28;20031;-75
2021/05/28 06:59:36;;;;;;;6.60;3.70;;;16.70;99.90;;;;;;5057828;28;20017;-75
2021/05/28 07:02:06;;;;;;;8.90;4.43;;;16.80;99.90;;;;;;5058444;28;20693;-75
2021/05/28 07:04:32;;;;;;;9.13;4.05;;;16.90;99.90;;;;;;5058338;28;20485;-75
2021/05/28 07:06:58;;;;;;;10.95;3.47;;;16.80;99.90;;;;;;5053434;28;20021;-73
2021/05/28 07:09:23;;;;;;;10.32;3.97;;;17.00;99.90;;;;;;5059107;28;20037;-74
2021/05/28 07:11:49;;;;;;;7.22;3.92;;;17.20;99.90;;;;;;5056578;28;20028;-73
2021/05/28 07:14:15;;;;;;;11.10;3.88;;;17.50;99.90;;;;;;5060680;28;20033;-72
2021/05/28 07:16:40;;;;;;;13.00;3.90;;;17.60;99.90;;;;;;5055477;28;20053;-73
2021/05/28 07:19:06;;;;;;;6.63;4.68;;;17.90;99.90;;;;;;5061783;28;20032;-75
2021/05/28 07:21:32;;;;;;;7.63;4.25;;;18.00;99.90;;;;;;5054905;28;20041;-74
2021/05/28 07:23:57;;;;;;;6.50;4.20;;;18.00;99.90;;;;;;5061389;28;20032;-75
2021/05/28 07:26:23;;;;;;;5.90;3.42;;;18.10;99.90;;;;;;5055193;28;20107;-75
2021/05/28 07:28:49;;;;;;;7.55;3.90;;;18.30;99.90;;;;;;5061668;28;20029;-75
2021/05/28 07:31:14;;;;;;;10.23;3.35;;;18.30;99.90;;;;;;5055446;28;20039;-74
2021/05/28 07:33:40;;;;;;;8.88;3.30;;;18.50;99.90;;;;;;5061559;28;20025;-75
2021/05/28 07:36:08;;;;;;;6.13;3.20;;;18.50;99.90;;;;;;5054758;28;20017;-76
2021/05/28 07:38:33;;;;;;;4.07;3.10;;;18.80;99.90;;;;;;5060949;28;20049;-74
2021/05/28 07:40:59;;;;;;;10.25;3.53;;;19.00;99.90;;;;;;5052939;28;20032;-74
2021/05/28 07:43:25;;;;;;;13.07;3.60;;;19.20;99.90;;;;;;5062134;28;20029;-76
2021/05/28 07:45:51;;;;;;;9.02;2.90;;;19.50;99.90;;;;;;5053044;28;20110;-75
2021/05/28 07:48:21;;;;;;;6.47;2.80;;;19.90;99.90;;;;;;5063213;28;20017;-75
2021/05/28 07:50:48;;;;;;;4.57;2.63;;;20.00;99.90;;;;;;5052462;28;20037;-75
2021/05/28 07:53:18;;;;;;;4.47;2.65;;;20.30;99.90;;;;;;5063163;28;20023;-75
2021/05/28 07:55:44;;;;;;;5.53;2.50;;;20.30;99.90;;;;;;5052062;28;20508;-69
2021/05/28 07:58:10;;;;;;;9.00;2.28;;;20.40;99.90;;;;;;5063087;28;20024;-76
2021/05/28 08:00:37;;;;;;;3.97;2.42;;;20.50;99.90;;;;;;5052225;28;20472;-69
2021/05/28 08:03:03;;;;;;;3.97;1.90;;;20.70;99.90;;;;;;5063329;28;20021;-76
2021/05/28 08:05:29;;;;;;;5.82;2.25;;;20.80;99.90;;;;;;5051962;28;20024;-76
2021/05/28 08:07:56;;;;;;;5.43;2.95;;;20.90;99.90;;;;;;5062739;28;20509;-75
2021/05/28 08:10:23;;;;;;;6.53;2.15;;;21.00;99.90;;;;;;5050047;28;20468;-76
2021/05/28 08:12:50;;;;;;;7.65;2.55;;;21.20;99.90;;;;;;5063019;28;20082;-76
2021/05/28 08:15:17;;;;;;;4.30;2.22;;;21.40;99.90;;;;;;5051994;28;20108;-76
2021/05/28 08:17:43;;;;;;;4.75;2.00;;;21.30;99.90;;;;;;5062542;28;20020;-77
2021/05/28 08:20:09;;;;;;;8.00;2.00;;;21.60;99.90;;;;;;5052330;28;20116;-76
2021/05/28 08:22:35;;;;;;;10.82;2.15;;;21.50;99.90;;;;;;5040154;28;20021;-75
2021/05/28 08:25:00;;;;;;;6.28;1.77;;;21.60;99.90;;;;;;5051979;28;20033;-73
2021/05/28 08:27:26;;;;;;;5.95;2.40;;;21.90;99.90;;;;;;5059942;28;20023;-74
2021/05/28 08:29:52;;;;;;;4.88;2.08;;;21.80;99.90;;;;;;5054150;28;20146;-75
2021/05/28 08:32:17;;;;;;;3.25;2.20;;;21.80;99.90;;;;;;5058811;28;20452;-74
2021/05/28 08:34:43;;;;;;;6.53;2.28;;;22.00;99.90;;;;;;5055818;28;20064;-72
2021/05/28 08:37:09;;;;;;;5.80;2.60;;;21.80;99.90;;;;;;5056885;28;20057;-68
2021/05/28 08:39:34;;;;;;;5.28;2.00;;;21.80;99.90;;;;;;5056234;28;20032;-72
2021/05/28 08:42:01;;;;;;;6.10;2.28;;;21.60;99.90;;;;;;5055563;28;20512;-76
2021/05/28 08:44:27;;;;;;;5.28;2.00;;;21.60;99.90;;;;;;5057135;28;20511;-74
2021/05/28 08:46:54;;;;;;;7.05;2.40;;;21.90;99.90;;;;;;5055240;28;20390;-76
2021/05/28 08:49:21;;;;;;;9.65;2.10;;;21.80;99.90;;;;;;5058324;28;20025;-73
2021/05/28 08:51:47;;;;;;;9.82;2.00;;;22.00;99.90;;;;;;5054012;28;20025;-73
2021/05/28 08:54:13;;;;;;;16.45;2.55;;;21.90;99.90;;;;;;5059087;28;20041;-76
2021/05/28 08:56:39;;;;;;;20.42;2.90;;;22.10;99.90;;;;;;5052648;28;20025;-73
2021/05/28 08:59:06;;;;;;;10.57;2.53;;;21.90;99.90;;;;;;5059749;28;20040;-77
2021/05/28 09:01:32;;;;;;;9.15;2.40;;;22.10;99.90;;;;;;5052601;28;20028;-75
2021/05/28 09:04:00;;;;;;;13.00;2.38;;;21.90;99.90;;;;;;5059930;28;20033;-74
2021/05/28 09:06:39;;;;;;;11.30;2.65;;;21.90;99.90;;;;;;5052975;28;20025;-74
2021/05/28 09:09:10;;;;;;;7.50;2.97;;;22.00;99.90;;;;;;5059624;28;20040;-72
2021/05/28 09:11:57;;;;;;;6.20;2.05;;;22.30;99.90;;;;;;5052563;28;20033;-74
2021/05/28 09:14:30;;;;;;;7.15;2.33;;;22.50;99.90;;;;;;5063920;28;20489;-69
2021/05/28 09:16:55;;;;;;;4.78;2.13;;;22.40;99.90;;;;;;5063966;28;20018;-76
2021/05/28 09:19:24;;;;;;;4.75;2.10;;;22.30;99.90;;;;;;5057708;28;20037;-75
2021/05/28 09:22:08;;;;;;;4.68;2.17;;;22.60;99.90;;;;;;5053546;28;20601;-77
2021/05/28 09:24:39;;;;;;;3.78;2.30;;;22.40;99.90;;;;;;5055783;28;20104;-68
2021/05/28 09:27:31;;;;;;;6.82;2.47;;;22.50;99.90;;;;;;5055117;28;20104;-75
2021/05/28 09:30:12;;;;;;;5.22;2.55;;;22.50;99.90;;;;;;5052364;28;20033;-76
2021/05/28 09:32:47;;;;;;;4.00;2.35;;;22.70;99.90;;;;;;5060203;28;20023;-76
2021/05/28 09:35:18;;;;;;;3.25;2.03;;;22.30;99.90;;;;;;5050337;28;20048;-76
2021/05/28 09:37:46;;;;;;;2.53;2.33;;;22.40;99.90;;;;;;5060376;28;20094;-76
2021/05/28 09:40:19;;;;;;;5.30;2.53;;;22.50;99.90;;;;;;5050060;28;20154;-76
2021/05/28 09:42:53;;;;;;;5.55;2.25;;;22.60;99.90;;;;;;5060755;28;20557;-69
2021/05/28 09:45:36;;;;;;;6.68;2.55;;;22.60;99.90;;;;;;5050791;28;20024;-75
2021/05/28 09:48:15;;;;;;;5.53;2.45;;;22.70;99.90;;;;;;5061159;28;20100;-72
2021/05/28 09:50:46;;;;;;;3.58;2.30;;;22.50;99.90;;;;;;5049700;28;20057;-75
2021/05/28 09:53:31;;;;;;;5.25;2.25;;;22.60;99.90;;;;;;5060610;28;20045;-76
2021/05/28 09:55:58;;;;;;;4.38;2.53;;;22.60;99.90;;;;;;5050238;28;20028;-75
2021/05/28 09:58:25;;;;;;;4.50;2.15;;;22.90;99.90;;;;;;5060154;28;20087;-76
2021/05/28 10:00:51;;;;;;;2.80;2.58;;;22.90;99.90;;;;;;5050245;28;20033;-76
2021/05/28 10:03:27;;;;;;;4.45;2.20;;;22.80;99.90;;;;;;5060898;28;20031;-77
2021/05/28 10:05:55;;;;;;;3.28;2.58;;;22.90;99.90;;;;;;5049942;28;20072;-72
2021/05/28 10:08:22;;;;;;;4.28;2.28;;;23.10;99.90;;;;;;5058403;28;20044;-77
2021/05/28 10:10:50;;;;;;;7.50;2.50;;;23.60;99.90;;;;;;5068324;28;20473;-69
2021/05/28 10:13:18;;;;;;;2.95;2.55;;;23.90;99.90;;;;;;5060551;28;20028;-75
2021/05/28 10:15:51;;;;;;;4.28;2.20;;;23.90;99.90;;;;;;5049346;28;20033;-74
2021/05/28 10:18:18;;;;;;;2.85;2.20;;;23.90;99.90;;;;;;5060896;28;20531;-69
2021/05/28 10:20:50;;;;;;;4.20;1.90;;;24.00;99.90;;;;;;5049398;28;20478;-70
2021/05/28 10:23:17;;;;;;;6.38;2.22;;;24.00;99.70;;;;;;5060313;28;20087;-75
2021/05/28 10:25:43;;;;;;;5.38;2.30;;;23.90;98.80;;;;;;5049557;28;20017;-72
2021/05/28 10:28:19;;;;;;;4.90;2.10;;;24.10;99.70;;;;;;5057825;28;20040;-75
2021/05/28 10:30:46;;;;;;;6.20;2.50;;;24.20;99.70;;;;;;5068844;28;20451;-75
2021/05/28 10:33:23;;;;;;;6.55;2.50;;;24.70;99.80;;;;;;5060981;28;20609;-74
2021/05/28 10:35:56;;;;;;;3.95;2.00;;;24.90;99.90;;;;;;5049798;28;20037;-75
2021/05/28 10:38:33;;;;;;;7.28;2.20;;;24.50;99.50;;;;;;5058005;28;20047;-77
2021/05/28 10:41:05;;;;;;;3.05;1.95;;;24.30;99.20;;;;;;5067600;28;20024;-77
2021/05/28 10:43:37;;;;;;;6.07;2.17;;;24.10;98.20;;;;;;5059140;28;20056;-71
2021/05/28 10:46:07;;;;;;;3.08;2.15;;;24.20;98.20;;;;;;5051070;28;20025;-77
2021/05/28 10:48:42;;;;;;;4.95;1.90;;;24.10;98.70;;;;;;5058968;28;20029;-77
2021/05/28 10:51:15;;;;;;;2.95;1.92;;;24.50;99.60;;;;;;5051407;28;21114;-76
2021/05/28 10:53:53;;;;;;;4.47;2.00;;;24.70;98.20;;;;;;5058234;28;20071;-75
2021/05/28 10:56:22;;;;;;;5.53;2.30;;;24.70;98.20;;;;;;5051327;28;20028;-77
2021/05/28 10:58:58;;;;;;;4.30;2.28;;;25.00;99.50;;;;;;5058075;28;20109;-77
2021/05/28 11:01:45;;;;;;;6.30;1.85;;;25.00;97.90;;;;;;5051731;28;20033;-76
2021/05/28 11:04:12;;;;;;;5.53;2.13;;;25.30;98.00;;;;;;5060404;28;20070;-77
2021/05/28 11:06:57;;;;;;;4.13;2.00;;;25.20;97.50;;;;;;5063345;28;20037;-76
2021/05/28 11:09:40;;;;;;;2.15;1.73;;;25.20;97.90;;;;;;5062233;28;20043;-78
2021/05/28 11:12:10;;;;;;;3.25;1.70;;;24.80;97.20;;;;;;5049997;28;20107;-77
2021/05/28 11:14:39;;;;;;;3.08;2.00;;;25.00;97.80;;;;;;5048172;28;20501;-76
2021/05/28 11:17:04;;;;;;;5.03;2.05;;;25.20;97.90;;;;;;5036423;28;20726;-75
2021/05/28 11:19:39;;;;;;;2.35;2.13;;;25.30;97.80;;;;;;5055371;28;20029;-76
2021/05/28 11:22:05;;;;;;;4.15;2.30;;;25.30;97.60;;;;;;5053976;28;20021;-74
2021/05/28 11:24:47;;;;;;;3.42;1.88;;;25.80;99.10;;;;;;5057560;28;20938;-78
2021/05/28 11:27:35;;;;;;;2.42;2.22;;;25.50;97.60;;;;;;5058482;28;20017;-74
2021/05/28 11:30:04;;;;;;;3.75;2.20;;;25.20;97.20;;;;;;5054447;28;20037;-73
2021/05/28 11:32:42;;;;;;;3.85;1.90;;;25.60;97.00;;;;;;5061239;28;20017;-78
2021/05/28 11:35:29;;;;;;;3.45;1.80;;;25.20;98.10;;;;;;5053817;28;20020;-70
2021/05/28 11:38:11;;;;;;;3.47;2.13;;;24.90;97.70;;;;;;5063584;28;20045;-75
2021/05/28 11:40:42;;;;;;;2.58;1.77;;;24.80;98.30;;;;;;5052098;28;20028;-77
2021/05/28 11:43:09;;;;;;;3.25;1.90;;;25.40;97.90;;;;;;5060354;28;20056;-78
2021/05/28 11:45:37;;;;;;;3.53;1.83;;;25.60;98.50;;;;;;5054860;28;20016;-77
2021/05/28 11:48:09;;;;;;;2.88;1.80;;;25.60;98.00;;;;;;5064313;28;20512;-78
2021/05/28 11:50:40;;;;;;;3.15;1.77;;;25.40;98.00;;;;;;5052559;28;20029;-77
2021/05/28 11:53:10;;;;;;;3.03;1.85;;;25.30;97.70;;;;;;5063269;28;20056;-77
2021/05/28 11:56:03;;;;;;;3.47;1.90;;;25.20;98.70;;;;;;5052095;28;20503;-78
2021/05/28 11:58:34;;;;;;;2.80;1.90;;;25.70;97.20;;;;;;5058856;28;20535;-75
2021/05/28 12:01:03;;;;;;;5.13;2.33;;;25.70;97.30;;;;;;5070242;28;20055;-77
2021/05/28 12:03:28;;;;;;;2.17;1.88;;;25.70;97.80;;;;;;5062301;28;20061;-72
2021/05/28 12:05:55;;;;;;;2.80;1.95;;;25.80;98.20;;;;;;5052200;28;20051;-75
2021/05/28 12:08:31;;;;;;;2.80;1.90;;;26.00;98.10;;;;;;5062693;28;20489;-77
2021/05/28 12:11:07;;;;;;;4.63;2.00;;;25.80;97.70;;;;;;5050343;28;20047;-74
2021/05/28 12:13:36;;;;;;;3.60;2.00;;;25.50;97.30;;;;;;5040754;28;20033;-77
2021/05/28 12:16:09;;;;;;;3.38;1.80;;;25.40;96.50;;;;;;5052618;28;20079;-77
2021/05/28 12:18:37;;;;;;;2.08;1.90;;;25.60;98.30;;;;;;5061042;28;20044;-77
2021/05/28 12:21:05;;;;;;;2.70;1.92;;;26.10;97.80;;;;;;5052647;28;22748;-77
2021/05/28 12:23:38;;;;;;;3.13;2.33;;;26.30;96.70;;;;;;5061160;28;20096;-77
2021/05/28 12:26:09;;;;;;;2.33;2.00;;;26.30;96.10;;;;;;5052394;28;20536;-72
2021/05/28 12:28:38;;;;;;;2.50;1.98;;;26.20;95.90;;;;;;5060881;28;20057;-76
2021/05/28 12:31:17;;;;;;;5.43;2.30;;;26.40;96.40;;;;;;5052345;28;20122;-72
2021/05/28 12:33:57;;;;;;;3.95;2.15;;;27.00;97.60;;;;;;5060148;28;20064;-76
2021/05/28 12:36:28;;;;;;;7.15;2.15;;;26.60;96.60;;;;;;5052086;28;20040;-77
2021/05/28 12:38:55;;;;;;;5.22;4.80;;;26.60;96.50;;;;;;5038919;28;20387;-77
2021/05/28 12:41:29;;;;;;;4.68;2.00;;;26.60;97.50;;;;;;5053526;28;20485;-76
2021/05/28 12:43:58;;;;;;;3.17;1.80;;;26.90;95.70;;;;;;5060080;28;20512;-75
2021/05/28 12:46:34;;;;;;;5.78;1.80;;;27.00;95.30;;;;;;5053797;28;20027;-70
2021/05/28 12:48:59;;;;;;;;;;;27.10;95.60;;;;;;5060317;28;20224;-73
2021/05/28 12:51:32;;;;;;;4.87;2.00;;;26.90;95.70;;;;;;5052960;28;20389;-75